Time;durP1;ratioP1;P1;durP2;ratioP2;P2;SDS_P1;SDS_P2;PMS_P1;PMS_P2;Temp;Humidity;BMP_temperature;BMP_pressure;BME280_temperature;BME280_humidity;BME280_pressure;Samples;Min_cycle;Max_cycle;Signal;HPM_P1;HPM_P2
2023/10/30 00:01:06;;;;;;;17.15;3.00;;;;;;;12.74;100.00;99849.56;5261151;28;20034;-72
2023/10/30 00:03:36;;;;;;;13.48;2.47;;;;;;;12.68;100.00;99852.03;5264158;28;20099;-72
2023/10/30 00:06:07;;;;;;;8.90;1.80;;;;;;;12.75;100.00;99851.22;5265548;28;20020;-72
2023/10/30 00:08:37;;;;;;;17.35;2.10;;;;;;;12.72;100.00;99851.63;5265373;28;20070;-72
2023/10/30 00:11:08;;;;;;;13.55;1.98;;;;;;;12.82;100.00;99852.06;5266646;28;20141;-72
2023/10/30 00:13:38;;;;;;;13.25;2.53;;;;;;;12.89;100.00;99856.41;5260160;28;20020;-72
2023/10/30 00:16:10;;;;;;;12.43;1.90;;;;;;;12.89;100.00;99852.91;5267813;28;20023;-72
2023/10/30 00:18:41;;;;;;;23.25;2.92;;;;;;;12.94;100.00;99856.63;5261454;28;20023;-72
2023/10/30 00:21:11;;;;;;;17.58;2.00;;;;;;;12.97;100.00;99863.47;5265268;28;20149;-72
2023/10/30 00:23:42;;;;;;;12.98;2.15;;;;;;;12.96;100.00;99865.34;5260281;28;20466;-72
2023/10/30 00:26:12;;;;;;;10.30;2.20;;;;;;;13.08;100.00;99867.41;5263346;28;20030;-72
2023/10/30 00:28:43;;;;;;;11.80;2.25;;;;;;;13.06;100.00;99870.31;5264403;28;20012;-72
2023/10/30 00:31:13;;;;;;;11.82;2.83;;;;;;;13.03;100.00;99876.09;5264076;28;20032;-72
2023/10/30 00:33:44;;;;;;;18.70;2.15;;;;;;;13.07;100.00;99880.06;5261340;28;20020;-71
2023/10/30 00:36:14;;;;;;;15.35;2.78;;;;;;;13.07;100.00;99888.13;5262286;28;20052;-71
2023/10/30 00:38:45;;;;;;;12.52;1.90;;;;;;;13.05;100.00;99886.66;5264717;28;20101;-72
2023/10/30 00:41:15;;;;;;;13.30;2.78;;;;;;;13.08;100.00;99891.66;5264943;28;20102;-72
2023/10/30 00:43:46;;;;;;;12.68;2.05;;;;;;;13.05;100.00;99895.59;5267408;28;20085;-72
2023/10/30 00:46:17;;;;;;;23.27;2.67;;;;;;;13.11;100.00;99902.84;5268424;28;20059;-72
2023/10/30 00:48:47;;;;;;;19.58;3.47;;;;;;;13.21;100.00;99897.06;5268381;28;20064;-71
2023/10/30 00:51:18;;;;;;;8.10;2.10;;;;;;;13.24;100.00;99899.34;5264577;28;20024;-72
2023/10/30 00:53:48;;;;;;;15.35;2.22;;;;;;;13.18;100.00;99902.84;5266891;28;20542;-72
2023/10/30 00:56:19;;;;;;;8.77;1.63;;;;;;;13.20;100.00;99904.31;5264016;28;20039;-73
2023/10/30 00:58:49;;;;;;;11.65;2.65;;;;;;;13.17;100.00;99910.09;5264451;28;20446;-72
2023/10/30 01:01:21;;;;;;;5.82;2.28;;;;;;;13.21;100.00;99907.84;5264044;28;20417;-72
2023/10/30 01:03:51;;;;;;;7.32;1.60;;;;;;;13.29;100.00;99901.44;5262601;28;20031;-71
2023/10/30 01:06:22;;;;;;;11.25;2.17;;;;;;;13.19;100.00;99915.28;5267070;28;20085;-72
2023/10/30 01:08:52;;;;;;;7.45;1.73;;;;;;;13.26;100.00;99907.25;5265317;28;20487;-72
2023/10/30 01:11:23;;;;;;;8.30;2.00;;;;;;;13.25;100.00;99921.72;5264954;28;20115;-72
2023/10/30 01:13:53;;;;;;;10.75;1.88;;;;;;;13.20;100.00;99916.91;5263721;28;20028;-71
2023/10/30 01:16:24;;;;;;;15.93;1.90;;;;;;;13.17;100.00;99923.56;5264025;28;20048;-71
2023/10/30 01:18:54;;;;;;;8.02;1.70;;;;;;;13.17;100.00;99920.88;5266560;28;20019;-71
2023/10/30 01:21:25;;;;;;;10.32;1.90;;;;;;;13.18;100.00;99924.38;5263685;28;20085;-72
2023/10/30 01:23:55;;;;;;;11.15;1.67;;;;;;;13.09;100.00;99925.63;5261991;28;20042;-72
2023/10/30 01:26:26;;;;;;;10.00;2.22;;;;;;;13.13;100.00;99935.78;5265537;28;20493;-72
2023/10/30 01:28:56;;;;;;;11.27;1.80;;;;;;;13.17;100.00;99933.50;5266233;28;20024;-72
2023/10/30 01:31:28;;;;;;;13.45;1.60;;;;;;;13.11;100.00;99932.47;5263124;28;20032;-71
2023/10/30 01:33:58;;;;;;;6.10;1.90;;;;;;;13.17;100.00;99937.03;5262865;28;20062;-71
2023/10/30 01:36:30;;;;;;;15.52;2.50;;;;;;;13.14;100.00;99940.13;5261412;28;20520;-72
2023/10/30 01:39:00;;;;;;;9.57;1.45;;;;;;;13.18;100.00;99937.84;5263511;28;20044;-72
2023/10/30 01:41:31;;;;;;;8.00;1.80;;;;;;;13.18;100.00;99936.00;5270458;28;20081;-72
2023/10/30 01:44:01;;;;;;;10.63;2.13;;;;;;;13.17;100.00;99942.41;5269504;28;20084;-72
2023/10/30 01:46:32;;;;;;;18.55;2.35;;;;;;;13.16;100.00;99932.69;5267026;28;20054;-71
2023/10/30 01:49:02;;;;;;;6.75;1.52;;;;;;;13.10;100.00;99930.81;5266601;28;20106;-72
2023/10/30 01:51:33;;;;;;;8.02;1.55;;;;;;;13.09;100.00;99929.13;5265617;28;20049;-72
2023/10/30 01:54:04;;;;;;;12.98;2.30;;;;;;;13.09;100.00;99939.06;5259827;28;20028;-72
2023/10/30 01:56:34;;;;;;;13.98;2.30;;;;;;;13.06;100.00;99924.19;5262332;28;20089;-71
2023/10/30 01:59:05;;;;;;;9.63;2.00;;;;;;;13.11;100.00;99931.66;5257921;28;20104;-72
2023/10/30 02:01:38;;;;;;;12.13;2.03;;;;;;;13.12;100.00;99931.44;5263210;28;20039;-72
2023/10/30 02:04:09;;;;;;;12.45;2.05;;;;;;;13.06;100.00;99929.56;5263497;28;20024;-72
2023/10/30 02:06:39;;;;;;;10.52;1.98;;;;;;;13.06;100.00;99926.88;5265942;28;20053;-72
2023/10/30 02:09:10;;;;;;;18.20;2.20;;;;;;;12.96;100.00;99919.19;5263274;28;20552;-71
2023/10/30 02:11:41;;;;;;;19.13;2.10;;;;;;;12.93;100.00;99919.59;5261001;28;20047;-71
2023/10/30 02:14:11;;;;;;;13.20;2.63;;;;;;;12.96;100.00;99924.56;5262777;28;20051;-72
2023/10/30 02:16:42;;;;;;;12.50;2.10;;;;;;;12.92;100.00;99920.63;5261015;28;20478;-71
2023/10/30 02:19:21;;;;;;;12.15;1.88;;;;;;;12.96;100.00;99921.88;5262906;28;20035;-71
2023/10/30 02:21:53;;;;;;;12.50;1.83;;;;;;;12.96;100.00;99931.81;5262758;28;20028;-72
2023/10/30 02:24:24;;;;;;;12.05;2.70;;;;;;;12.94;100.00;99929.31;5254224;28;20024;-71
2023/10/30 02:26:55;;;;;;;9.60;1.90;;;;;;;12.91;100.00;99932.44;5260615;28;20027;-72
2023/10/30 02:29:25;;;;;;;18.42;2.20;;;;;;;12.84;100.00;99928.03;5259324;28;20385;-72
2023/10/30 02:31:55;;;;;;;16.02;2.15;;;;;;;12.86;100.00;99926.81;5262708;28;20036;-71
2023/10/30 02:34:26;;;;;;;11.15;2.08;;;;;;;12.79;100.00;99922.44;5262120;28;20032;-72
2023/10/30 02:36:56;;;;;;;12.93;2.25;;;;;;;12.77;100.00;99924.53;5263359;28;20035;-71
2023/10/30 02:39:32;;;;;;;11.85;1.52;;;;;;;12.73;100.00;99917.88;5262489;28;20586;-72
2023/10/30 02:42:04;;;;;;;7.18;1.95;;;;;;;12.70;100.00;99921.78;5261682;28;20024;-71
2023/10/30 02:44:34;;;;;;;15.75;2.22;;;;;;;12.69;100.00;99918.28;5265569;28;20572;-71
2023/10/30 02:47:05;;;;;;;17.25;2.13;;;;;;;12.72;100.00;99917.06;5264019;28;20024;-71
2023/10/30 02:49:36;;;;;;;11.43;1.83;;;;;;;12.73;100.00;99916.00;5266950;28;20035;-71
2023/10/30 02:52:06;;;;;;;15.73;2.20;;;;;;;12.72;100.00;99921.59;5262798;28;20470;-71
2023/10/30 02:54:42;;;;;;;10.68;1.73;;;;;;;12.61;100.00;99923.84;5263739;28;20027;-71
2023/10/30 02:57:13;;;;;;;17.17;2.97;;;;;;;12.64;100.00;99919.91;5266164;28;20028;-71
2023/10/30 02:59:44;;;;;;;11.52;1.90;;;;;;;12.63;100.00;99923.66;5263926;28;20382;-71
2023/10/30 03:02:14;;;;;;;16.00;2.05;;;;;;;12.65;100.00;99921.56;5266335;28;20119;-71
2023/10/30 03:04:45;;;;;;;13.23;2.22;;;;;;;12.58;100.00;99918.88;5271529;28;20035;-71
2023/10/30 03:07:16;;;;;;;17.20;2.47;;;;;;;12.62;100.00;99916.59;5261393;28;20024;-71
2023/10/30 03:09:47;;;;;;;13.07;1.90;;;;;;;12.59;100.00;99917.81;5269750;28;20370;-71
2023/10/30 03:12:17;;;;;;;13.45;1.75;;;;;;;12.63;100.00;99912.88;5264040;28;20039;-71
2023/10/30 03:14:48;;;;;;;8.02;1.67;;;;;;;12.62;100.00;99920.13;5265626;28;20019;-71
2023/10/30 03:17:19;;;;;;;15.00;2.00;;;;;;;12.59;100.00;99912.44;5269061;28;20028;-71
2023/10/30 03:19:49;;;;;;;13.15;1.80;;;;;;;12.61;100.00;99928.41;5273256;28;20047;-71
2023/10/30 03:22:20;;;;;;;11.13;2.65;;;;;;;12.59;100.00;99917.81;5266981;28;20052;-71
2023/10/30 03:24:50;;;;;;;12.55;1.83;;;;;;;12.48;100.00;99925.66;5263736;28;20023;-70
2023/10/30 03:27:21;;;;;;;11.43;1.73;;;;;;;12.46;100.00;99923.19;5270816;28;20012;-71
2023/10/30 03:29:51;;;;;;;14.18;2.30;;;;;;;12.45;100.00;99921.53;5267727;28;20043;-71
2023/10/30 03:32:22;;;;;;;12.13;2.30;;;;;;;12.43;100.00;99920.88;5267182;28;20370;-71
2023/10/30 03:34:52;;;;;;;16.98;1.73;;;;;;;12.42;100.00;99929.97;5269359;28;20016;-71
2023/10/30 03:37:23;;;;;;;12.60;1.60;;;;;;;12.35;100.00;99929.97;5262954;28;20115;-71
2023/10/30 03:39:54;;;;;;;13.75;1.95;;;;;;;12.30;100.00;99929.75;5270815;28;20028;-71
2023/10/30 03:42:24;;;;;;;11.32;2.05;;;;;;;12.35;100.00;99923.72;5266064;28;20028;-71
2023/10/30 03:44:55;;;;;;;15.55;1.85;;;;;;;12.29;100.00;99922.66;5266983;28;20023;-71
2023/10/30 03:47:25;;;;;;;11.45;2.10;;;;;;;12.37;100.00;99919.81;5269065;28;20016;-71
2023/10/30 03:49:55;;;;;;;8.80;1.67;;;;;;;12.37;100.00;99921.69;5270487;28;20027;-71
2023/10/30 03:52:26;;;;;;;11.60;2.08;;;;;;;12.39;100.00;99903.47;5265611;28;20033;-71
2023/10/30 03:55:03;;;;;;;18.75;2.85;;;;;;;12.40;100.00;99913.22;5268412;28;20020;-71
2023/10/30 03:57:33;;;;;;;14.32;1.88;;;;;;;12.43;100.00;99913.63;5267853;28;20028;-71
2023/10/30 04:00:06;;;;;;;12.45;1.80;;;;;;;12.35;100.00;99912.97;5267711;28;20024;-71
2023/10/30 04:02:37;;;;;;;8.35;2.38;;;;;;;12.26;100.00;99916.88;5268148;28;20036;-71
2023/10/30 04:05:08;;;;;;;17.13;1.95;;;;;;;12.28;100.00;99920.19;5267534;28;20027;-71
2023/10/30 04:07:39;;;;;;;15.15;2.08;;;;;;;12.24;100.00;99922.44;5266131;28;20461;-71
2023/10/30 04:10:10;;;;;;;15.80;2.78;;;;;;;12.21;100.00;99925.53;5263011;28;20043;-71
2023/10/30 04:12:40;;;;;;;14.75;2.20;;;;;;;12.22;100.00;99921.00;5266460;28;20078;-71
2023/10/30 04:15:11;;;;;;;16.23;2.50;;;;;;;12.21;100.00;99928.25;5267375;28;20016;-71
2023/10/30 04:17:41;;;;;;;10.48;2.42;;;;;;;12.16;100.00;99923.44;5266439;28;20036;-71
2023/10/30 04:20:12;;;;;;;13.43;1.92;;;;;;;12.18;100.00;99912.50;5266457;28;20066;-71
2023/10/30 04:22:42;;;;;;;14.35;2.63;;;;;;;12.19;100.00;99916.84;5264855;28;20459;-71
2023/10/30 04:25:14;;;;;;;18.55;2.90;;;;;;;12.20;100.00;99921.22;5258327;28;20046;-71
2023/10/30 04:27:44;;;;;;;12.52;1.70;;;;;;;12.11;100.00;99917.84;5270442;28;20040;-71
2023/10/30 04:30:15;;;;;;;9.55;1.90;;;;;;;12.20;100.00;99923.91;5267045;28;20107;-71
2023/10/30 04:32:45;;;;;;;18.10;2.05;;;;;;;12.21;100.00;99925.53;5266264;28;20028;-71
2023/10/30 04:35:16;;;;;;;16.60;2.65;;;;;;;12.20;100.00;99918.53;5266251;28;20123;-71
2023/10/30 04:37:46;;;;;;;15.93;2.63;;;;;;;12.16;100.00;99917.25;5268973;28;20024;-71
2023/10/30 04:40:17;;;;;;;11.63;1.73;;;;;;;12.12;100.00;99915.97;5266852;28;20050;-71
2023/10/30 04:42:48;;;;;;;15.15;2.72;;;;;;;12.19;100.00;99914.97;5266191;28;20085;-71
2023/10/30 04:45:18;;;;;;;21.73;3.38;;;;;;;12.19;100.00;99914.97;5259444;28;20025;-71
2023/10/30 04:47:49;;;;;;;12.07;2.10;;;;;;;12.14;100.00;99909.38;5267540;28;20024;-71
2023/10/30 04:50:20;;;;;;;13.43;2.45;;;;;;;12.16;100.00;99912.69;5265657;28;20023;-71
2023/10/30 04:52:50;;;;;;;12.05;1.67;;;;;;;12.21;100.00;99912.09;5264187;28;20020;-71
2023/10/30 04:55:20;;;;;;;22.55;3.55;;;;;;;12.18;100.00;99913.31;5262089;28;20024;-71
2023/10/30 04:57:51;;;;;;;14.23;1.85;;;;;;;12.10;100.00;99905.44;5267392;28;20024;-71
2023/10/30 05:00:21;;;;;;;11.48;2.10;;;;;;;12.15;100.00;99904.84;5266527;28;20508;-71
2023/10/30 05:02:52;;;;;;;14.45;1.95;;;;;;;12.16;100.00;99909.19;5266306;28;21485;-71
2023/10/30 05:05:22;;;;;;;15.90;2.15;;;;;;;12.17;100.00;99914.34;5265697;28;20477;-71
2023/10/30 05:07:53;;;;;;;14.73;2.53;;;;;;;12.18;100.00;99912.50;5264773;28;20028;-71
2023/10/30 05:10:23;;;;;;;17.25;3.53;;;;;;;12.11;100.00;99908.94;5262863;28;20028;-71
2023/10/30 05:12:54;;;;;;;16.92;2.15;;;;;;;12.09;100.00;99903.75;5265060;28;20102;-71
2023/10/30 05:15:24;;;;;;;15.05;2.10;;;;;;;12.15;100.00;99911.03;5265288;28;20028;-71
2023/10/30 05:17:55;;;;;;;14.63;2.08;;;;;;;12.09;100.00;99917.19;5264995;28;20353;-71
2023/10/30 05:20:25;;;;;;;11.90;1.90;;;;;;;12.13;100.00;99921.16;5257092;28;20489;-70
2023/10/30 05:22:55;;;;;;;13.38;1.95;;;;;;;12.15;100.00;99918.28;5265127;28;20388;-71
2023/10/30 05:25:26;;;;;;;19.13;2.85;;;;;;;12.09;100.00;99917.19;5258213;28;20047;-71
2023/10/30 05:27:58;;;;;;;28.30;3.42;;;;;;;12.08;100.00;99918.22;5265265;28;20020;-71
2023/10/30 05:30:30;;;;;;;13.35;3.55;;;;;;;12.03;100.00;99906.41;5265337;28;20055;-71
2023/10/30 05:33:01;;;;;;;23.23;2.35;;;;;;;12.00;100.00;99904.09;5264585;28;20031;-71
2023/10/30 05:35:31;;;;;;;19.08;3.00;;;;;;;11.99;100.00;99905.97;5263340;28;20047;-71
2023/10/30 05:38:05;;;;;;;15.77;2.75;;;;;;;11.93;100.00;99910.28;5265437;28;20465;-71
2023/10/30 05:40:35;;;;;;;11.82;2.33;;;;;;;11.89;100.00;99909.00;5264632;28;20032;-72
2023/10/30 05:43:06;;;;;;;16.42;2.20;;;;;;;11.90;100.00;99907.19;5265831;28;20492;-71
2023/10/30 05:45:36;;;;;;;15.68;2.00;;;;;;;11.82;100.00;99910.84;5264478;28;20084;-72
2023/10/30 05:48:07;;;;;;;17.77;3.00;;;;;;;11.80;100.00;99912.88;5265339;28;20072;-71
2023/10/30 05:50:37;;;;;;;21.83;2.85;;;;;;;11.75;100.00;99919.88;5262867;28;20024;-71
2023/10/30 05:53:08;;;;;;;20.10;2.70;;;;;;;11.75;100.00;99912.63;5264275;28;20028;-71
2023/10/30 05:55:38;;;;;;;11.40;2.60;;;;;;;11.69;100.00;99902.66;5263205;28;20169;-72
2023/10/30 05:58:09;;;;;;;15.48;2.40;;;;;;;11.60;100.00;99891.25;5264341;28;20020;-71
2023/10/30 06:00:39;;;;;;;13.23;2.50;;;;;;;11.70;100.00;99901.66;5264903;28;20027;-71
2023/10/30 06:03:10;;;;;;;15.63;3.17;;;;;;;11.66;100.00;99908.44;5260822;28;20035;-71
2023/10/30 06:05:40;;;;;;;14.10;1.80;;;;;;;11.60;100.00;99907.38;5263190;28;20043;-71
2023/10/30 06:08:11;;;;;;;19.60;2.97;;;;;;;11.59;100.00;99911.06;5263527;28;20149;-71
2023/10/30 06:10:42;;;;;;;15.98;2.28;;;;;;;11.63;100.00;99917.69;5261391;28;20122;-71
2023/10/30 06:13:12;;;;;;;18.63;1.73;;;;;;;11.66;100.00;99908.44;5262838;28;20051;-71
2023/10/30 06:15:43;;;;;;;14.25;2.42;;;;;;;11.67;100.00;99910.09;5262998;28;20032;-71
2023/10/30 06:18:13;;;;;;;17.48;3.20;;;;;;;11.58;100.00;99914.78;5263403;28;20026;-71
2023/10/30 06:20:45;;;;;;;14.57;2.10;;;;;;;11.58;100.00;99917.47;5263813;28;20488;-71
2023/10/30 06:23:15;;;;;;;18.95;2.63;;;;;;;11.55;100.00;99906.28;5256221;28;20533;-71
2023/10/30 06:25:46;;;;;;;16.70;2.50;;;;;;;11.54;100.00;99912.66;5259697;28;20115;-71
2023/10/30 06:28:16;;;;;;;16.08;4.18;;;;;;;11.44;100.00;99906.81;5261599;28;20393;-71
2023/10/30 06:30:46;;;;;;;16.67;2.30;;;;;;;11.45;100.00;99905.81;5263847;28;20127;-71
2023/10/30 06:33:17;;;;;;;17.45;2.38;;;;;;;11.48;100.00;99914.28;5266798;28;20024;-72
2023/10/30 06:35:55;;;;;;;16.50;2.35;;;;;;;11.43;100.00;99911.34;5262788;28;20028;-71
2023/10/30 06:38:27;;;;;;;13.57;1.98;;;;;;;11.46;100.00;99912.84;5257907;28;20028;-71
2023/10/30 06:40:58;;;;;;;18.83;2.60;;;;;;;11.45;100.00;99908.50;5255771;28;20477;-71
2023/10/30 06:43:29;;;;;;;13.45;2.47;;;;;;;11.40;100.00;99917.97;5264751;28;20164;-71
2023/10/30 06:46:01;;;;;;;21.88;3.05;;;;;;;11.48;100.00;99919.66;5263058;28;20043;-71
2023/10/30 06:48:32;;;;;;;15.73;2.78;;;;;;;11.50;100.00;99914.94;5263797;28;20053;-71
2023/10/30 06:51:03;;;;;;;16.17;2.20;;;;;;;11.51;100.00;99919.28;5265836;28;20024;-71
2023/10/30 06:53:34;;;;;;;16.92;2.72;;;;;;;11.55;100.00;99931.31;5265374;28;20035;-71
2023/10/30 06:56:04;;;;;;;19.73;2.13;;;;;;;11.57;100.00;99939.97;5264219;28;20668;-71
2023/10/30 06:58:35;;;;;;;15.57;2.30;;;;;;;11.53;100.00;99952.13;5264700;28;20039;-71
2023/10/30 07:01:05;;;;;;;24.35;2.95;;;;;;;11.67;100.00;99955.75;5265542;28;20496;-71
2023/10/30 07:03:36;;;;;;;20.00;4.53;;;;;;;11.75;100.00;99950.25;5265269;28;20447;-71
2023/10/30 07:06:10;;;;;;;18.45;2.90;;;;;;;11.76;100.00;99957.28;5265689;28;20085;-71
2023/10/30 07:08:41;;;;;;;14.82;2.30;;;;;;;11.87;100.00;99961.31;5265028;28;20051;-71
2023/10/30 07:11:12;;;;;;;18.02;2.53;;;;;;;11.77;100.00;99960.81;5258365;28;20021;-71
2023/10/30 07:13:42;;;;;;;15.93;2.50;;;;;;;11.83;100.00;99950.13;5264444;28;20485;-71
2023/10/30 07:16:13;;;;;;;19.85;2.50;;;;;;;11.92;100.00;99942.75;5259481;28;20024;-71
2023/10/30 07:18:44;;;;;;;8.15;2.03;;;;;;;11.91;100.00;99954.53;5265663;28;20023;-71
2023/10/30 07:21:15;;;;;;;16.88;2.90;;;;;;;12.08;100.00;99950.50;5261525;28;20036;-71
2023/10/30 07:23:46;;;;;;;11.63;2.05;;;;;;;12.16;100.00;99963.78;5263103;28;20058;-71
2023/10/30 07:26:17;;;;;;;17.13;2.33;;;;;;;12.34;100.00;99960.56;5263591;28;20032;-71
2023/10/30 07:28:48;;;;;;;11.80;2.40;;;;;;;12.40;100.00;99964.34;5264688;28;20031;-71
2023/10/30 07:31:19;;;;;;;15.80;2.83;;;;;;;12.53;100.00;99958.16;5264939;28;20032;-71
2023/10/30 07:33:50;;;;;;;9.63;1.80;;;;;;;12.74;100.00;99943.75;5262525;28;20035;-71
2023/10/30 07:36:20;;;;;;;12.30;1.77;;;;;;;12.98;100.00;99962.06;5265473;28;20032;-71
2023/10/30 07:38:51;;;;;;;25.42;3.58;;;;;;;12.99;100.00;99976.34;5264242;28;20028;-71
2023/10/30 07:41:21;;;;;;;14.88;2.78;;;;;;;13.05;100.00;99980.91;5265610;28;20024;-71
2023/10/30 07:43:52;;;;;;;11.48;2.00;;;;;;;13.01;100.00;99993.13;5264061;28;20020;-71
2023/10/30 07:46:22;;;;;;;13.63;2.42;;;;;;;12.83;100.00;99999.06;5264526;28;20039;-71
2023/10/30 07:48:53;;;;;;;16.88;2.90;;;;;;;12.76;100.00;99990.97;5264868;28;20073;-71
2023/10/30 07:51:23;;;;;;;15.52;2.50;;;;;;;12.69;100.00;99988.25;5265553;28;20564;-71
2023/10/30 07:53:54;;;;;;;15.55;2.28;;;;;;;12.63;100.00;99986.34;5260596;28;20048;-71
2023/10/30 07:56:25;;;;;;;11.80;2.20;;;;;;;12.68;100.00;99983.91;5264996;28;20077;-71
2023/10/30 07:58:55;;;;;;;14.27;2.58;;;;;;;12.75;100.00;99985.78;5257119;28;20028;-71
2023/10/30 08:01:26;;;;;;;16.27;2.75;;;;;;;12.80;100.00;99981.47;5264015;28;20642;-71
2023/10/30 08:03:57;;;;;;;14.55;2.70;;;;;;;12.88;100.00;99985.84;5261323;28;20133;-71
2023/10/30 08:06:27;;;;;;;14.65;2.33;;;;;;;13.13;100.00;99988.81;5264662;28;20043;-71
2023/10/30 08:08:58;;;;;;;21.05;2.47;;;;;;;13.23;100.00;99980.38;5259403;28;20045;-71
2023/10/30 08:11:30;;;;;;;14.73;2.17;;;;;;;13.20;100.00;99982.41;5259067;28;20028;-71
2023/10/30 08:14:01;;;;;;;17.90;2.22;;;;;;;13.31;100.00;99990.97;5258611;28;20029;-71
2023/10/30 08:16:34;;;;;;;21.88;3.05;;;;;;;13.28;100.00;99984.09;5264528;28;20043;-71
2023/10/30 08:19:05;;;;;;;20.48;2.05;;;;;;;13.32;100.00;99998.81;5268512;28;20038;-71
2023/10/30 08:21:35;;;;;;;11.40;2.92;;;;;;;13.23;100.00;99993.84;5264213;28;20032;-71
2023/10/30 08:24:06;;;;;;;12.15;2.45;;;;;;;13.36;100.00;100000.09;5260459;28;20098;-71
2023/10/30 08:26:37;;;;;;;12.52;2.22;;;;;;;13.30;100.00;99995.50;5267358;28;20035;-71
2023/10/30 08:29:09;;;;;;;13.02;2.25;;;;;;;13.39;100.00;99998.81;5273346;28;20022;-71
2023/10/30 08:31:39;;;;;;;12.23;2.80;;;;;;;13.39;100.00;100001.53;5273087;28;20047;-71
2023/10/30 08:34:10;;;;;;;14.90;2.55;;;;;;;13.44;100.00;100010.66;5270363;28;20027;-71
2023/10/30 08:36:40;;;;;;;14.77;2.20;;;;;;;13.43;100.00;100006.28;5267890;28;20114;-71
2023/10/30 08:39:12;;;;;;;14.90;2.15;;;;;;;13.56;100.00;100005.50;5272631;28;20031;-71
2023/10/30 08:41:42;;;;;;;16.08;2.65;;;;;;;13.56;100.00;100007.38;5264130;28;20035;-72
2023/10/30 08:44:13;;;;;;;9.93;2.10;;;;;;;13.58;100.00;100006.09;5262729;28;20032;-71
2023/10/30 08:46:44;;;;;;;9.30;1.90;;;;;;;13.62;100.00;100004.66;5263820;28;20111;-71
2023/10/30 08:49:14;;;;;;;15.93;2.00;;;;;;;13.65;100.00;100003.41;5273713;28;20036;-71
2023/10/30 08:51:45;;;;;;;15.45;2.20;;;;;;;13.74;100.00;100004.88;5268855;28;20035;-71
2023/10/30 08:54:15;;;;;;;15.60;2.17;;;;;;;13.88;100.00;99998.44;5271523;28;20039;-71
2023/10/30 08:56:46;;;;;;;13.38;1.77;;;;;;;13.80;100.00;99992.41;5270608;28;20028;-71
2023/10/30 08:59:18;;;;;;;17.38;2.72;;;;;;;13.77;100.00;100004.47;5271998;28;20036;-71
2023/10/30 09:01:48;;;;;;;16.00;2.13;;;;;;;13.86;100.00;100002.41;5265722;28;20028;-71
2023/10/30 09:04:19;;;;;;;16.35;2.50;;;;;;;13.81;100.00;100002.19;5275315;28;20088;-71
2023/10/30 09:06:50;;;;;;;14.52;2.75;;;;;;;13.95;100.00;100003.81;5264233;28;20031;-71
2023/10/30 09:09:20;;;;;;;15.55;2.28;;;;;;;13.89;100.00;99999.25;5264781;28;20059;-71
2023/10/30 09:11:51;;;;;;;16.90;3.30;;;;;;;13.99;100.00;99997.78;5266602;28;20073;-72
2023/10/30 09:14:22;;;;;;;17.48;3.05;;;;;;;13.92;100.00;99994.28;5271330;28;20040;-71
2023/10/30 09:16:54;;;;;;;16.75;2.35;;;;;;;13.97;100.00;99997.19;5269699;28;20038;-71
2023/10/30 09:19:24;;;;;;;17.30;2.08;;;;;;;14.03;100.00;100000.91;5264092;28;20079;-71
2023/10/30 09:21:55;;;;;;;10.82;1.98;;;;;;;13.95;100.00;99993.03;5271270;28;20396;-71
2023/10/30 09:24:26;;;;;;;13.05;2.58;;;;;;;13.87;100.00;99996.78;5264039;28;20143;-72
2023/10/30 09:26:57;;;;;;;10.25;2.08;;;;;;;13.93;100.00;100000.50;5267480;28;20476;-72
2023/10/30 09:29:27;;;;;;;12.60;2.30;;;;;;;13.95;100.00;99987.63;5265486;28;20032;-72
2023/10/30 09:32:00;;;;;;;14.30;2.33;;;;;;;14.02;100.00;99988.47;5264718;28;20110;-73
2023/10/30 09:34:31;;;;;;;12.10;2.17;;;;;;;13.99;100.00;99981.63;5265988;28;20035;-72
2023/10/30 09:37:01;;;;;;;13.70;3.20;;;;;;;13.96;100.00;99981.22;5266163;28;20611;-73
2023/10/30 09:39:33;;;;;;;14.43;2.47;;;;;;;13.97;100.00;99972.91;5266144;28;20048;-72
2023/10/30 09:42:07;;;;;;;7.55;1.92;;;;;;;14.02;100.00;99960.69;5264605;28;20385;-72
2023/10/30 09:44:37;;;;;;;9.48;2.10;;;;;;;14.05;100.00;99961.06;5267175;28;20038;-72
2023/10/30 09:47:08;;;;;;;11.05;2.28;;;;;;;14.03;100.00;99973.13;5267828;28;20032;-72
2023/10/30 09:49:39;;;;;;;14.20;2.63;;;;;;;13.99;100.00;99959.22;5270505;28;20043;-73
2023/10/30 09:52:11;;;;;;;16.08;2.95;;;;;;;13.98;100.00;99962.97;5269684;28;23405;-72
2023/10/30 09:54:44;;;;;;;14.02;2.45;;;;;;;13.96;100.00;99967.75;5262019;28;20031;-72
2023/10/30 09:57:14;;;;;;;12.65;2.53;;;;;;;14.01;100.00;99965.25;5268297;28;20061;-72
2023/10/30 09:59:52;;;;;;;14.48;2.10;;;;;;;14.07;100.00;99969.81;5265941;28;20530;-72
2023/10/30 10:02:24;;;;;;;8.10;1.98;;;;;;;14.12;100.00;99970.00;5258772;28;20039;-72
2023/10/30 10:04:56;;;;;;;12.13;2.28;;;;;;;14.21;100.00;99967.91;5263973;28;20674;-71
2023/10/30 10:07:27;;;;;;;13.00;3.00;;;;;;;14.29;100.00;99964.13;5262360;28;20024;-72
2023/10/30 10:10:00;;;;;;;19.10;2.97;;;;;;;14.32;100.00;99966.44;5260931;28;20366;-72
2023/10/30 10:12:31;;;;;;;10.80;2.17;;;;;;;14.42;100.00;99962.22;5259090;28;20088;-72
2023/10/30 10:15:06;;;;;;;10.82;2.40;;;;;;;14.38;100.00;99965.56;5258180;28;20023;-72
2023/10/30 10:17:40;;;;;;;;;;;;;;;14.41;100.00;99959.75;5262320;28;20066;-71
2023/10/30 10:20:12;;;;;;;10.80;2.38;;;;;;;14.57;100.00;99964.72;5261848;28;19919;-72
2023/10/30 10:22:42;;;;;;;12.50;2.40;;;;;;;14.64;100.00;99954.69;5261437;28;20044;-72
2023/10/30 10:25:18;;;;;;;9.23;2.08;;;;;;;14.54;100.00;99958.91;5261242;28;20097;-72
2023/10/30 10:27:49;;;;;;;;;;;;;;;14.41;100.00;99954.38;5258655;28;20039;-72
2023/10/30 10:30:23;;;;;;;11.75;2.67;;;;;;;14.51;100.00;99952.06;5264491;28;19981;-72
2023/10/30 10:32:56;;;;;;;8.77;1.65;;;;;;;14.46;100.00;99951.84;5263682;28;20054;-72
2023/10/30 10:35:30;;;;;;;9.85;2.35;;;;;;;14.43;100.00;99946.88;5263671;28;20032;-72
2023/10/30 10:38:09;;;;;;;10.95;2.08;;;;;;;14.45;100.00;99934.81;5261441;28;20101;-72
2023/10/30 10:40:41;;;;;;;10.05;2.03;;;;;;;14.57;100.00;99939.59;5264652;28;20060;-72
2023/10/30 10:43:12;;;;;;;10.18;2.20;;;;;;;14.67;100.00;99938.09;5265064;28;20024;-72
2023/10/30 10:45:43;;;;;;;10.40;1.80;;;;;;;14.55;100.00;99939.78;5261107;28;20028;-72
2023/10/30 10:48:14;;;;;;;4.72;1.83;;;;;;;14.55;100.00;99941.66;5264914;28;20034;-72
2023/10/30 10:50:46;;;;;;;7.03;1.83;;;;;;;14.57;100.00;99932.31;5268767;28;20506;-72
2023/10/30 10:53:19;;;;;;;8.50;2.05;;;;;;;14.56;100.00;99927.13;5266479;28;20554;-72
2023/10/30 10:55:50;;;;;;;8.82;1.65;;;;;;;14.64;100.00;99922.31;5256856;28;20031;-72
2023/10/30 10:58:41;;;;;;;5.22;1.60;;;;;;;14.59;100.00;99924.00;5259628;28;20477;-72
2023/10/30 11:01:17;;;;;;;8.60;1.88;;;;;;;14.61;100.00;99917.34;5265817;28;20030;-72
2023/10/30 11:03:48;;;;;;;6.53;2.30;;;;;;;14.68;100.00;99911.91;5263410;28;20034;-72
2023/10/30 11:06:27;;;;;;;6.88;2.10;;;;;;;14.79;100.00;99903.13;5263663;28;20587;-72
2023/10/30 11:09:06;;;;;;;6.70;1.95;;;;;;;14.88;100.00;99901.81;5264359;28;20038;-72
2023/10/30 11:11:50;;;;;;;11.10;2.25;;;;;;;14.99;100.00;99895.72;5259014;28;20560;-72
2023/10/30 11:14:35;;;;;;;11.50;2.38;;;;;;;15.06;100.00;99886.75;5264363;28;20035;-71
2023/10/30 11:17:05;;;;;;;11.18;2.05;;;;;;;15.16;100.00;99884.38;5267146;28;20046;-71
2023/10/30 11:19:37;;;;;;;9.35;2.72;;;;;;;15.21;100.00;99882.69;5268408;28;20035;-71
2023/10/30 11:22:07;;;;;;;12.90;2.10;;;;;;;15.17;100.00;99884.19;5266496;28;20016;-71
2023/10/30 11:24:40;;;;;;;5.68;2.10;;;;;;;15.14;100.00;99873.81;5258575;28;20035;-71
2023/10/30 11:27:29;;;;;;;10.70;2.60;;;;;;;15.09;100.00;99872.81;5258264;28;20028;-71
2023/10/30 11:30:08;;;;;;;6.60;2.05;;;;;;;15.02;100.00;99865.59;5257798;28;20027;-71
2023/10/30 11:32:44;;;;;;;11.70;3.28;;;;;;;15.06;100.00;99860.59;5263790;28;20031;-71
2023/10/30 11:35:20;;;;;;;10.02;2.40;;;;;;;15.06;100.00;99854.31;5264523;28;20036;-71
2023/10/30 11:37:52;;;;;;;13.82;3.03;;;;;;;15.11;100.00;99841.84;5260995;28;20396;-71